Time;durP1;ratioP1;P1;durP2;ratioP2;P2;SDS_P1;SDS_P2;PMS_P1;PMS_P2;Temp;Humidity;BMP_temperature;BMP_pressure;BME280_temperature;BME280_humidity;BME280_pressure;Samples;Min_cycle;Max_cycle;Signal;HPM_P1;HPM_P2
2022/08/16 00:01:36;;;;;;;2.75;2.03;;;24.50;89.00;;;;;;4068267;29;20059;-63
2022/08/16 00:03:37;;;;;;;3.42;2.08;;;24.50;89.60;;;;;;4068060;29;20546;-63
2022/08/16 00:05:38;;;;;;;4.53;2.30;;;24.50;89.80;;;;;;4069770;29;20131;-63
2022/08/16 00:07:39;;;;;;;3.28;1.88;;;24.50;90.00;;;;;;4068403;29;20056;-63
2022/08/16 00:09:40;;;;;;;2.47;1.85;;;24.40;90.00;;;;;;4072827;29;20071;-64
2022/08/16 00:11:42;;;;;;;2.33;1.95;;;24.40;90.00;;;;;;4067324;29;20035;-63
2022/08/16 00:13:44;;;;;;;2.75;2.25;;;24.40;90.20;;;;;;4066074;29;20037;-63
2022/08/16 00:15:47;;;;;;;2.70;1.95;;;24.40;90.20;;;;;;4065870;29;20040;-64
2022/08/16 00:17:48;;;;;;;3.00;2.47;;;24.40;90.50;;;;;;4071120;29;20509;-63
2022/08/16 00:19:48;;;;;;;2.97;2.25;;;24.40;90.10;;;;;;4070866;29;20047;-63
2022/08/16 00:21:51;;;;;;;3.72;2.30;;;24.40;90.20;;;;;;4067949;29;20036;-63
2022/08/16 00:23:52;;;;;;;3.33;2.20;;;24.40;90.30;;;;;;4066875;29;20148;-63
2022/08/16 00:25:53;;;;;;;2.15;1.90;;;24.40;90.70;;;;;;4070904;29;20028;-63
2022/08/16 00:27:53;;;;;;;2.60;2.03;;;24.40;90.70;;;;;;4065687;29;20505;-63
2022/08/16 00:29:54;;;;;;;2.80;1.85;;;24.40;90.30;;;;;;4075549;29;20487;-64
2022/08/16 00:31:54;;;;;;;2.58;2.08;;;24.40;90.70;;;;;;4070102;29;20060;-63
2022/08/16 00:33:55;;;;;;;4.20;2.20;;;24.40;90.60;;;;;;4072191;29;20038;-63
2022/08/16 00:35:56;;;;;;;2.25;2.03;;;24.40;91.20;;;;;;4073284;29;20056;-66
2022/08/16 00:37:56;;;;;;;2.60;2.08;;;24.40;91.50;;;;;;4075268;29;20421;-64
2022/08/16 00:39:57;;;;;;;2.97;2.13;;;24.40;90.90;;;;;;4074082;29;20111;-64
2022/08/16 00:41:58;;;;;;;3.15;2.05;;;24.40;91.00;;;;;;4070559;29;20499;-64
2022/08/16 00:44:02;;;;;;;4.93;2.40;;;24.40;91.00;;;;;;4066372;29;20070;-63
2022/08/16 00:46:11;;;;;;;2.55;2.35;;;24.40;92.10;;;;;;4074633;29;20032;-64
2022/08/16 00:48:14;;;;;;;3.35;2.35;;;24.30;91.40;;;;;;4073745;29;20462;-63
2022/08/16 00:50:18;;;;;;;2.88;2.30;;;24.30;91.30;;;;;;4074368;29;20043;-64
2022/08/16 00:52:18;;;;;;;2.70;2.17;;;24.30;91.40;;;;;;4070590;29;20107;-63
2022/08/16 00:54:21;;;;;;;3.80;2.38;;;24.30;91.30;;;;;;4070026;29;20301;-64
2022/08/16 00:56:24;;;;;;;;;;;24.30;91.60;;;;;;4072767;29;20171;-63
2022/08/16 00:58:27;;;;;;;3.30;2.25;;;24.30;91.50;;;;;;4073359;29;19915;-64
2022/08/16 01:00:31;;;;;;;3.40;2.22;;;24.20;91.70;;;;;;4072787;29;20368;-64
2022/08/16 01:02:32;;;;;;;2.83;2.20;;;24.20;91.70;;;;;;4070717;29;20036;-63
2022/08/16 01:04:33;;;;;;;4.50;2.33;;;24.20;91.70;;;;;;4072887;29;20039;-63
2022/08/16 01:06:35;;;;;;;3.28;2.72;;;24.20;91.80;;;;;;4072052;29;20059;-63
2022/08/16 01:08:37;;;;;;;2.97;2.10;;;24.10;91.90;;;;;;4073656;29;20051;-63
2022/08/16 01:10:38;;;;;;;4.07;2.25;;;24.10;92.00;;;;;;4073717;29;20036;-63
2022/08/16 01:12:39;;;;;;;3.55;2.55;;;24.10;92.20;;;;;;4068909;29;20128;-63
2022/08/16 01:14:44;;;;;;;3.72;2.50;;;24.10;92.70;;;;;;4070654;29;20044;-63
2022/08/16 01:16:46;;;;;;;4.72;2.40;;;24.00;92.60;;;;;;4072323;29;20060;-63
2022/08/16 01:18:55;;;;;;;5.95;2.80;;;24.00;92.90;;;;;;4074248;29;20387;-63
2022/08/16 01:21:03;;;;;;;4.40;2.42;;;24.00;92.60;;;;;;4072415;29;20083;-63
2022/08/16 01:23:27;;;;;;;2.90;2.50;;;24.00;92.80;;;;;;4068311;29;20395;-63
2022/08/16 01:25:35;;;;;;;3.13;2.35;;;24.00;92.90;;;;;;4069753;29;21129;-63
2022/08/16 01:27:47;;;;;;;4.03;2.45;;;24.00;93.10;;;;;;4072576;29;20043;-63
2022/08/16 01:30:01;;;;;;;3.13;2.47;;;23.90;93.00;;;;;;4069544;29;20452;-64
2022/08/16 01:32:02;;;;;;;5.07;2.72;;;23.80;93.60;;;;;;4068730;29;20042;-64
2022/08/16 01:34:03;;;;;;;3.30;2.38;;;23.70;93.50;;;;;;4070214;29;20032;-63
2022/08/16 01:36:08;;;;;;;4.82;2.70;;;23.70;94.00;;;;;;4071437;29;20044;-64
2022/08/16 01:38:17;;;;;;;5.18;2.95;;;23.70;93.80;;;;;;4073038;29;20451;-63
2022/08/16 01:40:20;;;;;;;6.80;2.97;;;23.70;94.50;;;;;;4071896;29;20210;-63
2022/08/16 01:42:21;;;;;;;4.68;2.65;;;23.70;94.20;;;;;;4067879;29;20447;-63
2022/08/16 01:44:22;;;;;;;3.13;2.33;;;23.60;94.30;;;;;;4067300;29;20131;-63
2022/08/16 01:46:52;;;;;;;2.85;2.35;;;23.60;94.60;;;;;;4071632;29;20472;-63
2022/08/16 01:49:03;;;;;;;3.42;2.58;;;23.60;94.80;;;;;;4069220;29;20167;-63
2022/08/16 01:51:04;;;;;;;4.07;2.65;;;23.60;94.30;;;;;;4071795;29;20035;-63
2022/08/16 01:53:05;;;;;;;3.17;2.40;;;23.60;94.90;;;;;;4067428;29;20407;-63
2022/08/16 01:55:06;;;;;;;4.45;2.50;;;23.60;95.30;;;;;;4072183;29;20033;-64
2022/08/16 01:57:08;;;;;;;2.67;2.22;;;23.50;94.60;;;;;;4072706;29;20068;-63
2022/08/16 01:59:12;;;;;;;3.80;2.50;;;23.50;94.80;;;;;;4073922;29;20043;-63
2022/08/16 02:01:13;;;;;;;2.97;2.20;;;23.50;94.70;;;;;;4071052;29;20505;-63
2022/08/16 02:03:13;;;;;;;3.15;2.13;;;23.50;95.00;;;;;;4069077;29;20028;-63
2022/08/16 02:05:14;;;;;;;3.58;2.35;;;23.40;94.80;;;;;;4070954;29;20028;-63
2022/08/16 02:07:17;;;;;;;3.75;2.50;;;23.50;94.60;;;;;;4071881;29;20039;-63
2022/08/16 02:09:20;;;;;;;3.58;2.60;;;23.40;95.30;;;;;;4071733;29;20031;-63
2022/08/16 02:11:22;;;;;;;3.95;2.42;;;23.30;95.00;;;;;;4065925;29;20060;-63
2022/08/16 02:13:23;;;;;;;2.47;2.20;;;23.30;95.20;;;;;;4064543;29;20057;-63
2022/08/16 02:15:27;;;;;;;2.22;1.90;;;23.30;95.20;;;;;;4064323;29;20035;-63
2022/08/16 02:17:28;;;;;;;3.78;2.40;;;23.30;95.10;;;;;;4064454;29;20444;-63
2022/08/16 02:19:30;;;;;;;4.80;2.40;;;23.30;95.30;;;;;;4065209;29;20031;-63
2022/08/16 02:21:31;;;;;;;3.45;2.60;;;23.30;95.00;;;;;;4063076;29;20704;-63
2022/08/16 02:23:35;;;;;;;4.35;2.53;;;23.30;95.10;;;;;;4064534;29;20043;-63
2022/08/16 02:25:36;;;;;;;3.35;2.58;;;23.30;95.20;;;;;;4064292;29;20392;-63
2022/08/16 02:27:39;;;;;;;2.88;2.00;;;23.30;94.90;;;;;;4048381;29;20029;-63
2022/08/16 02:29:40;;;;;;;;;;;23.30;94.90;;;;;;4065689;29;20092;-63
2022/08/16 02:31:41;;;;;;;2.67;2.47;;;23.30;95.10;;;;;;4063426;29;19933;-63
2022/08/16 02:33:42;;;;;;;2.97;2.15;;;23.30;94.80;;;;;;4062338;29;20028;-63
2022/08/16 02:35:43;;;;;;;3.47;2.22;;;23.30;95.30;;;;;;4062360;29;20039;-63
2022/08/16 02:37:43;;;;;;;5.43;2.30;;;23.30;95.20;;;;;;4064861;29;20111;-63
2022/08/16 02:39:44;;;;;;;2.75;2.00;;;23.20;95.20;;;;;;4065104;29;20034;-63
2022/08/16 02:41:47;;;;;;;2.85;2.30;;;23.20;95.10;;;;;;4063291;29;20062;-63
2022/08/16 02:43:47;;;;;;;;;;;23.30;95.30;;;;;;4063994;29;20140;-62
2022/08/16 02:45:48;;;;;;;2.17;1.85;;;23.20;95.50;;;;;;4063961;29;20306;-63
2022/08/16 02:47:48;;;;;;;3.85;2.30;;;23.20;95.80;;;;;;4064827;29;20047;-62
2022/08/16 02:49:49;;;;;;;2.53;2.33;;;23.30;96.70;;;;;;4063846;29;20043;-63
2022/08/16 02:51:50;;;;;;;2.95;2.20;;;23.30;96.10;;;;;;4063192;29;20443;-63
2022/08/16 02:53:51;;;;;;;4.07;2.30;;;23.30;95.40;;;;;;4063676;29;20036;-63
2022/08/16 02:55:52;;;;;;;4.65;2.65;;;23.20;95.30;;;;;;4045947;29;20045;-63
2022/08/16 02:57:52;;;;;;;4.90;2.40;;;23.30;95.50;;;;;;4064186;29;20121;-63
2022/08/16 02:59:53;;;;;;;3.90;2.30;;;23.20;95.50;;;;;;4064526;29;20519;-63
2022/08/16 03:01:55;;;;;;;3.42;2.20;;;23.20;95.30;;;;;;4062827;29;20036;-63
2022/08/16 03:03:58;;;;;;;3.28;2.50;;;23.20;95.50;;;;;;4063028;29;20051;-63
2022/08/16 03:05:59;;;;;;;2.80;2.22;;;23.20;95.50;;;;;;4063798;29;20028;-63
2022/08/16 03:08:00;;;;;;;3.03;2.25;;;23.20;95.50;;;;;;4063526;29;20408;-63
2022/08/16 03:10:01;;;;;;;2.63;2.40;;;23.20;95.50;;;;;;4064540;29;20031;-63
2022/08/16 03:12:03;;;;;;;2.55;2.20;;;23.20;95.60;;;;;;4062724;29;20063;-63
2022/08/16 03:14:04;;;;;;;3.40;2.30;;;23.20;96.00;;;;;;4063645;29;20117;-63
2022/08/16 03:16:05;;;;;;;4.25;2.38;;;23.20;95.90;;;;;;4063433;29;20281;-63
2022/08/16 03:18:06;;;;;;;2.65;2.20;;;23.20;95.70;;;;;;4064456;29;20095;-63
2022/08/16 03:20:08;;;;;;;3.38;1.95;;;23.20;95.60;;;;;;4063858;29;20104;-64
2022/08/16 03:22:09;;;;;;;2.45;2.25;;;23.20;95.60;;;;;;4062974;29;20036;-63
2022/08/16 03:24:09;;;;;;;2.80;2.15;;;23.20;95.40;;;;;;4063650;29;20039;-63
2022/08/16 03:26:11;;;;;;;3.60;2.40;;;23.20;95.60;;;;;;4063624;29;20062;-63
2022/08/16 03:28:11;;;;;;;2.65;2.30;;;23.20;95.50;;;;;;4064619;29;20063;-63
2022/08/16 03:30:20;;;;;;;2.97;2.40;;;23.20;96.00;;;;;;4062767;29;20044;-63
2022/08/16 03:32:20;;;;;;;3.70;2.35;;;23.10;95.30;;;;;;4062257;29;20036;-63
2022/08/16 03:34:21;;;;;;;3.03;2.00;;;23.10;95.40;;;;;;4063836;29;20044;-63
2022/08/16 03:36:22;;;;;;;2.60;1.98;;;23.10;95.80;;;;;;4063402;29;20039;-64
2022/08/16 03:38:23;;;;;;;4.55;2.22;;;23.00;95.40;;;;;;4064287;29;20029;-64
2022/08/16 03:40:24;;;;;;;3.15;2.30;;;23.00;95.40;;;;;;4063534;29;20558;-63
2022/08/16 03:42:25;;;;;;;4.53;2.08;;;22.90;95.40;;;;;;4063164;29;20382;-63
2022/08/16 03:44:26;;;;;;;2.97;2.53;;;22.90;95.90;;;;;;4063421;29;20142;-63
2022/08/16 03:46:27;;;;;;;3.53;2.30;;;22.90;95.90;;;;;;4063209;29;20368;-63
2022/08/16 03:48:34;;;;;;;3.72;2.70;;;22.90;97.10;;;;;;4064116;29;20032;-63
2022/08/16 03:50:35;;;;;;;2.42;2.22;;;22.90;96.90;;;;;;4063283;29;20032;-63
2022/08/16 03:52:36;;;;;;;4.93;2.30;;;22.80;96.40;;;;;;4062904;29;20032;-63
2022/08/16 03:54:37;;;;;;;3.03;2.28;;;22.80;96.40;;;;;;4063871;29;20051;-63
2022/08/16 03:56:37;;;;;;;3.40;2.30;;;22.80;96.40;;;;;;4063621;29;20039;-64
2022/08/16 03:58:38;;;;;;;3.42;2.55;;;22.80;97.60;;;;;;4063774;29;20032;-63
2022/08/16 04:00:38;;;;;;;4.57;2.85;;;22.80;96.10;;;;;;4065514;29;20044;-63
2022/08/16 04:02:41;;;;;;;5.55;2.30;;;22.70;96.40;;;;;;4064198;29;20515;-63
2022/08/16 04:04:41;;;;;;;2.65;2.22;;;22.60;96.40;;;;;;4065869;29;20222;-63
2022/08/16 04:06:42;;;;;;;3.13;2.45;;;22.60;96.70;;;;;;4066182;29;20547;-63
2022/08/16 04:08:42;;;;;;;3.53;2.75;;;22.50;96.70;;;;;;4067013;29;20028;-63
2022/08/16 04:10:43;;;;;;;3.22;2.00;;;22.30;97.00;;;;;;4066694;29;20554;-63
2022/08/16 04:12:44;;;;;;;4.80;2.08;;;22.40;97.40;;;;;;4065305;29;20400;-63
2022/08/16 04:14:46;;;;;;;2.72;2.25;;;22.30;97.50;;;;;;4066753;29;20028;-63
2022/08/16 04:16:46;;;;;;;6.28;2.58;;;22.30;97.80;;;;;;4068380;29;20506;-63
2022/08/16 04:18:47;;;;;;;2.75;2.40;;;22.30;97.70;;;;;;4066892;29;20044;-64
2022/08/16 04:20:48;;;;;;;4.47;2.65;;;22.30;98.20;;;;;;4066290;29;20036;-63
2022/08/16 04:22:49;;;;;;;3.92;2.60;;;22.30;98.30;;;;;;4066053;29;20039;-63
2022/08/16 04:24:49;;;;;;;4.20;2.40;;;22.20;98.30;;;;;;4065629;29;20106;-63
2022/08/16 04:26:50;;;;;;;3.00;2.40;;;22.20;98.10;;;;;;4064363;29;20040;-63
2022/08/16 04:28:51;;;;;;;4.28;2.90;;;22.10;97.90;;;;;;4067540;29;20094;-63
2022/08/16 04:30:51;;;;;;;4.95;2.40;;;22.10;98.30;;;;;;4065901;29;20043;-63
2022/08/16 04:32:53;;;;;;;3.83;2.35;;;22.10;98.10;;;;;;4064932;29;20576;-64
2022/08/16 04:34:54;;;;;;;4.38;2.58;;;22.10;98.50;;;;;;4067196;29;20563;-64
2022/08/16 04:36:57;;;;;;;4.88;2.72;;;22.10;98.70;;;;;;4065906;29;20072;-64
2022/08/16 04:38:58;;;;;;;4.07;2.55;;;22.10;99.00;;;;;;4068485;29;20067;-64
2022/08/16 04:40:58;;;;;;;5.35;2.97;;;22.10;99.40;;;;;;4064929;29;20036;-65
2022/08/16 04:43:00;;;;;;;4.72;2.50;;;22.00;99.70;;;;;;4064132;29;20127;-65
2022/08/16 04:45:00;;;;;;;3.67;2.70;;;22.10;99.20;;;;;;4066093;29;20038;-65
2022/08/16 04:47:01;;;;;;;4.40;2.53;;;22.00;99.50;;;;;;4065973;29;20127;-64
2022/08/16 04:49:02;;;;;;;3.80;2.65;;;22.00;99.60;;;;;;4067789;29;20571;-64
2022/08/16 04:51:03;;;;;;;3.78;2.20;;;21.90;99.90;;;;;;4065701;29;20078;-64
2022/08/16 04:53:04;;;;;;;3.97;2.60;;;21.90;99.60;;;;;;4065201;29;20040;-64
2022/08/16 04:55:19;;;;;;;4.45;2.80;;;21.90;99.90;;;;;;4068447;29;20028;-65
2022/08/16 04:57:20;;;;;;;4.15;2.70;;;21.90;99.90;;;;;;4059368;29;20040;-64
2022/08/16 04:59:20;;;;;;;4.85;2.83;;;21.90;99.90;;;;;;4065969;29;20082;-64
2022/08/16 05:01:21;;;;;;;5.35;2.88;;;21.90;99.90;;;;;;4064934;29;20040;-64
2022/08/16 05:03:22;;;;;;;4.50;2.70;;;21.90;99.90;;;;;;4068385;29;20028;-64
2022/08/16 05:05:23;;;;;;;3.20;2.88;;;21.90;99.90;;;;;;4065154;29;20036;-64
2022/08/16 05:07:23;;;;;;;3.38;2.92;;;21.80;99.90;;;;;;4066044;29;20048;-64
2022/08/16 05:09:24;;;;;;;5.07;3.20;;;21.80;99.90;;;;;;4065476;29;20125;-64
2022/08/16 05:11:26;;;;;;;4.15;2.67;;;21.80;99.90;;;;;;4063817;29;20032;-65
2022/08/16 05:13:26;;;;;;;4.57;2.90;;;21.70;99.90;;;;;;4065795;29;20484;-65
2022/08/16 05:15:27;;;;;;;4.55;2.97;;;21.70;99.90;;;;;;4069676;29;20040;-64
2022/08/16 05:17:30;;;;;;;3.92;2.75;;;21.70;99.90;;;;;;4073722;29;20084;-66
2022/08/16 05:19:31;;;;;;;6.20;2.97;;;21.70;99.90;;;;;;4065639;29;20555;-64
2022/08/16 05:21:32;;;;;;;6.07;3.20;;;21.70;99.90;;;;;;4064283;29;20036;-64
2022/08/16 05:23:33;;;;;;;3.50;2.80;;;21.70;99.90;;;;;;4062712;29;20036;-63
2022/08/16 05:25:34;;;;;;;6.32;3.10;;;21.70;99.90;;;;;;4063752;29;20138;-64
2022/08/16 05:27:35;;;;;;;5.25;3.10;;;21.70;99.90;;;;;;4065252;29;20115;-63
2022/08/16 05:29:36;;;;;;;3.78;2.83;;;21.80;99.90;;;;;;4061800;29;20036;-63
2022/08/16 05:31:37;;;;;;;4.32;3.03;;;21.70;99.90;;;;;;4064198;29;20050;-63
2022/08/16 05:33:38;;;;;;;5.93;2.78;;;21.80;99.90;;;;;;4064978;29;20082;-64
2022/08/16 05:35:38;;;;;;;6.15;3.10;;;21.80;99.90;;;;;;4064924;29;20047;-64
2022/08/16 05:37:40;;;;;;;4.78;3.13;;;21.80;99.90;;;;;;4064522;29;20566;-64
2022/08/16 05:39:40;;;;;;;3.70;2.55;;;21.80;99.90;;;;;;4067022;29;20091;-64
2022/08/16 05:41:41;;;;;;;5.88;3.22;;;21.80;99.90;;;;;;4064068;29;20051;-63
2022/08/16 05:43:42;;;;;;;9.18;3.13;;;21.80;99.90;;;;;;4064900;29;20836;-64
2022/08/16 05:45:42;;;;;;;6.05;2.78;;;21.80;99.90;;;;;;4063989;29;20036;-64
2022/08/16 05:47:43;;;;;;;6.30;3.60;;;21.90;99.90;;;;;;4065725;29;20028;-65
2022/08/16 05:49:43;;;;;;;5.07;2.67;;;21.90;99.90;;;;;;4065761;29;20036;-64
2022/08/16 05:51:46;;;;;;;3.45;2.50;;;21.90;99.90;;;;;;4066494;29;20033;-64
2022/08/16 05:53:46;;;;;;;3.40;2.60;;;21.90;99.90;;;;;;4063330;29;20395;-63
2022/08/16 05:55:47;;;;;;;5.20;3.20;;;21.90;99.90;;;;;;4071794;29;20031;-64
2022/08/16 05:57:47;;;;;;;3.17;2.67;;;22.00;99.90;;;;;;4065556;29;20115;-64
2022/08/16 05:59:48;;;;;;;5.65;3.00;;;22.00;99.90;;;;;;4065383;29;20119;-64
2022/08/16 06:01:50;;;;;;;5.57;3.17;;;22.00;99.90;;;;;;4063733;29;20044;-67
2022/08/16 06:03:51;;;;;;;5.93;3.00;;;22.10;99.90;;;;;;4064967;29;20031;-64
2022/08/16 06:05:52;;;;;;;4.63;2.88;;;22.10;99.90;;;;;;4064964;29;20043;-64
2022/08/16 06:07:52;;;;;;;5.60;3.60;;;22.20;99.90;;;;;;4063930;29;20136;-66
2022/08/16 06:09:57;;;;;;;4.80;3.22;;;22.10;99.90;;;;;;4066562;29;20044;-66
2022/08/16 06:12:01;;;;;;;4.30;3.20;;;22.20;99.90;;;;;;4064576;29;20032;-66
2022/08/16 06:14:03;;;;;;;4.07;3.08;;;22.20;99.90;;;;;;4064215;29;20036;-67
2022/08/16 06:16:05;;;;;;;3.95;3.30;;;22.20;99.90;;;;;;4066825;29;20044;-66
2022/08/16 06:18:05;;;;;;;4.63;2.95;;;22.30;99.90;;;;;;4065208;29;20036;-66
2022/08/16 06:20:07;;;;;;;5.93;3.30;;;22.30;99.90;;;;;;4064627;29;20040;-65
2022/08/16 06:22:09;;;;;;;7.63;3.47;;;22.30;99.90;;;;;;4063537;29;20032;-67
2022/08/16 06:24:09;;;;;;;9.18;3.50;;;22.30;99.90;;;;;;4063755;29;20036;-66
2022/08/16 06:26:10;;;;;;;4.85;3.22;;;22.30;99.90;;;;;;4063829;29;20032;-67
2022/08/16 06:28:11;;;;;;;3.78;3.03;;;22.40;99.90;;;;;;4063369;29;20036;-66
2022/08/16 06:30:12;;;;;;;4.72;3.70;;;22.40;99.90;;;;;;4063377;29;20048;-66
2022/08/16 06:32:13;;;;;;;4.75;3.50;;;22.40;99.90;;;;;;4066615;29;20043;-65
2022/08/16 06:34:14;;;;;;;4.00;3.30;;;22.50;99.90;;;;;;4064140;29;20032;-66
2022/08/16 06:36:15;;;;;;;5.07;3.53;;;22.50;99.90;;;;;;4063752;29;20033;-66
2022/08/16 06:38:17;;;;;;;4.07;3.37;;;22.60;99.90;;;;;;4064510;29;20041;-66
2022/08/16 06:40:17;;;;;;;6.20;3.50;;;22.60;99.90;;;;;;4047338;29;20280;-65
2022/08/16 06:42:18;;;;;;;4.28;2.90;;;22.70;99.90;;;;;;4063410;29;20474;-66
2022/08/16 06:44:19;;;;;;;3.85;2.63;;;22.90;99.90;;;;;;4062514;29;20400;-66
2022/08/16 06:46:23;;;;;;;3.88;3.45;;;23.10;99.90;;;;;;4066395;29;20132;-66
2022/08/16 06:48:24;;;;;;;4.78;3.45;;;23.30;99.90;;;;;;4064166;29;20036;-66
2022/08/16 06:50:25;;;;;;;4.03;2.65;;;23.60;99.90;;;;;;4060009;29;20415;-66
2022/08/16 06:52:35;;;;;;;4.38;3.47;;;23.90;99.90;;;;;;4061767;29;20028;-66
2022/08/16 06:54:36;;;;;;;4.18;3.00;;;24.30;99.00;;;;;;4062881;29;20032;-67
2022/08/16 06:56:37;;;;;;;4.22;3.08;;;24.70;98.00;;;;;;4063004;29;20111;-66
2022/08/16 06:58:37;;;;;;;4.25;2.90;;;25.00;97.10;;;;;;4063922;29;20491;-67
2022/08/16 07:00:38;;;;;;;5.88;2.90;;;25.40;95.90;;;;;;4064101;29;20028;-66
2022/08/16 07:02:40;;;;;;;3.45;2.78;;;25.70;96.00;;;;;;4059355;29;20099;-67
2022/08/16 07:04:41;;;;;;;4.90;3.63;;;25.90;94.00;;;;;;4064365;29;20047;-67
2022/08/16 07:06:42;;;;;;;4.03;2.90;;;26.20;93.50;;;;;;4063793;29;20048;-67
2022/08/16 07:08:42;;;;;;;3.70;3.15;;;26.40;93.00;;;;;;4063754;29;20399;-67
2022/08/16 07:10:43;;;;;;;4.10;3.13;;;26.60;92.00;;;;;;4063769;29;20039;-66
2022/08/16 07:12:44;;;;;;;5.03;3.00;;;26.70;91.70;;;;;;4062331;29;20139;-67
2022/08/16 07:14:46;;;;;;;3.28;2.85;;;26.90;91.00;;;;;;4064291;29;20066;-67
2022/08/16 07:16:47;;;;;;;4.45;3.20;;;27.10;90.90;;;;;;4063941;29;20047;-66
2022/08/16 07:18:48;;;;;;;3.30;2.60;;;27.20;90.50;;;;;;4064598;29;20039;-67
2022/08/16 07:20:50;;;;;;;3.85;3.08;;;27.30;90.20;;;;;;4063599;29;20033;-66
2022/08/16 07:22:54;;;;;;;6.55;3.70;;;27.50;90.30;;;;;;4062934;29;20297;-67
2022/08/16 07:24:55;;;;;;;4.30;2.88;;;27.50;91.00;;;;;;4063465;29;20047;-66
2022/08/16 07:26:57;;;;;;;6.15;3.63;;;27.40;90.20;;;;;;4063470;29;20032;-66
2022/08/16 07:28:58;;;;;;;4.72;3.33;;;27.50;89.50;;;;;;4062657;29;20091;-67
2022/08/16 07:31:00;;;;;;;3.03;2.55;;;27.50;89.40;;;;;;4061151;29;20476;-67
2022/08/16 07:33:02;;;;;;;4.05;2.80;;;27.60;89.70;;;;;;4062316;29;20099;-69
2022/08/16 07:35:03;;;;;;;4.53;2.90;;;27.60;88.80;;;;;;4063606;29;20517;-68
2022/08/16 07:37:06;;;;;;;2.85;2.50;;;27.70;89.00;;;;;;4063767;29;20028;-67
2022/08/16 07:39:07;;;;;;;5.07;3.22;;;27.80;88.20;;;;;;4062904;29;20044;-67
2022/08/16 07:41:08;;;;;;;4.63;3.20;;;27.80;86.80;;;;;;4062295;29;20488;-67
2022/08/16 07:43:09;;;;;;;5.03;3.40;;;27.70;87.30;;;;;;4062006;29;20537;-67
2022/08/16 07:45:10;;;;;;;5.20;3.25;;;27.70;88.90;;;;;;4063618;29;20047;-68
2022/08/16 07:47:10;;;;;;;4.80;3.47;;;27.70;87.60;;;;;;4064181;29;20050;-67
2022/08/16 07:49:11;;;;;;;5.47;3.50;;;27.80;87.70;;;;;;4067294;29;20119;-67
2022/08/16 07:51:12;;;;;;;4.07;2.90;;;27.70;87.20;;;;;;4069657;29;20062;-67
2022/08/16 07:53:13;;;;;;;8.43;3.95;;;27.80;87.80;;;;;;4061994;29;20047;-67
2022/08/16 07:55:15;;;;;;;6.72;4.20;;;27.80;87.40;;;;;;4067656;29;20103;-67
2022/08/16 07:57:16;;;;;;;11.10;4.28;;;27.80;87.50;;;;;;4062869;29;20042;-67
2022/08/16 07:59:16;;;;;;;5.25;3.28;;;27.80;86.90;;;;;;4060980;29;21000;-67
2022/08/16 08:01:17;;;;;;;4.38;3.38;;;27.80;87.80;;;;;;4059601;29;20393;-67
2022/08/16 08:03:18;;;;;;;4.43;3.50;;;27.90;86.80;;;;;;4059208;29;20048;-67
2022/08/16 08:05:18;;;;;;;6.32;3.90;;;27.90;86.70;;;;;;4059378;29;20040;-67
2022/08/16 08:07:19;;;;;;;5.82;4.07;;;28.00;87.60;;;;;;4060636;29;20072;-67
2022/08/16 08:09:20;;;;;;;7.03;3.83;;;27.90;87.00;;;;;;4060120;29;20080;-67
2022/08/16 08:11:21;;;;;;;4.80;3.72;;;27.90;86.60;;;;;;4062475;29;20131;-67
2022/08/16 08:13:22;;;;;;;6.07;3.15;;;27.90;86.80;;;;;;4061647;29;20031;-67
2022/08/16 08:15:23;;;;;;;5.75;3.63;;;28.00;87.50;;;;;;4063820;29;20487;-67
2022/08/16 08:17:24;;;;;;;5.50;3.70;;;28.00;86.90;;;;;;4063857;29;20036;-67
2022/08/16 08:19:25;;;;;;;6.10;3.55;;;28.00;87.40;;;;;;4065483;29;20040;-67
2022/08/16 08:21:25;;;;;;;4.50;3.47;;;28.10;86.70;;;;;;4060234;29;20075;-66
2022/08/16 08:23:26;;;;;;;4.63;3.55;;;28.20;87.50;;;;;;4062215;29;20047;-67
2022/08/16 08:25:30;;;;;;;5.90;3.58;;;28.20;87.30;;;;;;4063070;29;20389;-67
2022/08/16 08:27:31;;;;;;;7.28;3.60;;;28.30;86.00;;;;;;4050791;29;20045;-68
2022/08/16 08:29:33;;;;;;;4.35;3.40;;;28.40;86.80;;;;;;4048471;29;20130;-67
2022/08/16 08:31:38;;;;;;;4.80;3.50;;;28.40;87.20;;;;;;4051906;29;20503;-67
2022/08/16 08:33:38;;;;;;;9.10;3.60;;;28.50;85.40;;;;;;4063331;29;20095;-67
2022/08/16 08:35:39;;;;;;;5.43;2.72;;;28.50;86.10;;;;;;4062645;29;20538;-67
2022/08/16 08:37:40;;;;;;;5.97;3.80;;;28.60;86.50;;;;;;4062908;29;20072;-67
2022/08/16 08:39:41;;;;;;;6.50;3.95;;;28.60;85.40;;;;;;4063014;29;20037;-67
2022/08/16 08:41:42;;;;;;;5.13;3.85;;;28.60;84.50;;;;;;4059955;29;21930;-67
2022/08/16 08:43:43;;;;;;;6.10;3.28;;;28.60;84.40;;;;;;4062815;29;20539;-67
2022/08/16 08:45:44;;;;;;;5.47;3.28;;;28.60;84.50;;;;;;4063921;29;20444;-66
2022/08/16 08:47:45;;;;;;;7.70;3.58;;;28.60;85.10;;;;;;4062549;29;20060;-67
2022/08/16 08:49:46;;;;;;;5.50;3.22;;;28.60;84.00;;;;;;4064608;29;20476;-67
2022/08/16 08:51:46;;;;;;;5.40;3.00;;;28.70;85.00;;;;;;4073900;29;20036;-67
2022/08/16 08:53:49;;;;;;;5.13;3.40;;;28.70;83.50;;;;;;4062107;29;20044;-66
2022/08/16 08:55:50;;;;;;;4.15;3.58;;;28.80;84.10;;;;;;4063030;29;20043;-67
2022/08/16 08:57:51;;;;;;;6.57;3.45;;;28.80;84.20;;;;;;4062935;29;20031;-67
2022/08/16 08:59:51;;;;;;;5.55;3.38;;;28.80;84.20;;;;;;4063766;29;20040;-67
2022/08/16 09:01:53;;;;;;;7.10;3.10;;;28.90;85.30;;;;;;4061723;29;20036;-68
2022/08/16 09:03:54;;;;;;;4.75;3.22;;;28.90;83.80;;;;;;4062993;29;21255;-66
2022/08/16 09:05:54;;;;;;;3.83;3.10;;;29.00;84.50;;;;;;4061644;29;20068;-66
2022/08/16 09:07:55;;;;;;;4.95;2.83;;;29.00;83.90;;;;;;4062765;29;20139;-66
2022/08/16 09:09:55;;;;;;;5.63;3.13;;;29.00;82.00;;;;;;4063376;29;20040;-67
2022/08/16 09:11:56;;;;;;;4.05;3.30;;;29.10;82.60;;;;;;4061586;29;20043;-66
2022/08/16 09:13:57;;;;;;;6.40;3.85;;;29.10;82.30;;;;;;4062906;29;20043;-67
2022/08/16 09:15:57;;;;;;;4.95;3.00;;;29.20;83.40;;;;;;4064784;29;20432;-68
2022/08/16 09:17:58;;;;;;;8.43;3.40;;;29.20;82.40;;;;;;4065984;29;20044;-67
2022/08/16 09:19:59;;;;;;;4.82;3.63;;;29.30;81.80;;;;;;4067741;29;20028;-67
2022/08/16 09:22:00;;;;;;;3.78;3.40;;;29.20;81.00;;;;;;4064193;29;20106;-67
2022/08/16 09:24:01;;;;;;;4.95;3.22;;;29.20;81.60;;;;;;4065375;29;20096;-67
2022/08/16 09:26:03;;;;;;;6.40;2.95;;;29.30;81.10;;;;;;4064942;29;20044;-67
2022/08/16 09:28:04;;;;;;;5.03;3.30;;;29.30;80.40;;;;;;4065895;29;20028;-67
2022/08/16 09:30:07;;;;;;;4.10;3.03;;;29.30;82.70;;;;;;4065582;29;20051;-67
2022/08/16 09:32:07;;;;;;;9.32;4.18;;;29.40;80.70;;;;;;4064743;29;20042;-67
2022/08/16 09:34:09;;;;;;;3.28;2.83;;;29.40;80.50;;;;;;4067510;29;20554;-67
2022/08/16 09:36:11;;;;;;;3.58;2.75;;;29.40;80.20;;;;;;4065517;29;20055;-67
2022/08/16 09:38:12;;;;;;;5.70;3.50;;;29.50;80.00;;;;;;4065859;29;20580;-67
2022/08/16 09:40:13;;;;;;;5.57;3.58;;;29.50;80.40;;;;;;4065126;29;20040;-67
2022/08/16 09:42:14;;;;;;;4.25;3.33;;;29.50;79.40;;;;;;4064841;29;20036;-67
2022/08/16 09:44:15;;;;;;;5.93;2.60;;;29.50;79.40;;;;;;4064928;29;20515;-67
2022/08/16 09:46:16;;;;;;;3.28;2.78;;;29.50;80.20;;;;;;4065273;29;20032;-67
2022/08/16 09:48:17;;;;;;;4.18;3.05;;;29.50;79.50;;;;;;4064625;29;20036;-67
2022/08/16 09:50:18;;;;;;;3.92;2.70;;;29.50;79.50;;;;;;4063843;29;20483;-67
2022/08/16 09:52:19;;;;;;;7.07;3.63;;;29.50;79.60;;;;;;4064878;29;20044;-67
2022/08/16 09:54:24;;;;;;;5.85;3.28;;;29.60;78.30;;;;;;4064486;29;20039;-67
2022/08/16 09:56:31;;;;;;;4.32;3.22;;;29.50;78.80;;;;;;4064877;29;20045;-67
2022/08/16 09:58:31;;;;;;;6.82;3.30;;;29.40;77.30;;;;;;4064882;29;20032;-67
2022/08/16 10:00:32;;;;;;;7.57;3.47;;;29.40;79.60;;;;;;4064906;29;20475;-67
2022/08/16 10:02:33;;;;;;;4.13;2.97;;;29.40;79.60;;;;;;4065074;29;20895;-68
2022/08/16 10:04:33;;;;;;;3.92;2.80;;;29.50;78.00;;;;;;4065459;29;20084;-67
2022/08/16 10:06:34;;;;;;;5.00;3.10;;;29.50;78.40;;;;;;4064815;29;20456;-67
2022/08/16 10:08:35;;;;;;;4.68;3.20;;;29.60;78.00;;;;;;4064417;29;20079;-68
2022/08/16 10:10:36;;;;;;;11.10;3.10;;;29.60;77.20;;;;;;4064531;29;20044;-67
2022/08/16 10:14:55;;;;;;;4.68;2.92;;;29.70;78.90;;;;;;4074098;29;20471;-67
2022/08/16 10:16:58;;;;;;;3.67;2.72;;;29.70;77.50;;;;;;4071577;29;20128;-67
2022/08/16 10:18:59;;;;;;;4.28;2.88;;;29.80;78.60;;;;;;4071235;29;20495;-68
2022/08/16 10:21:00;;;;;;;3.58;2.90;;;29.80;75.90;;;;;;4086070;28;20043;-68
2022/08/16 10:23:06;;;;;;;5.65;3.55;;;29.80;74.80;;;;;;4062656;29;20109;-66
2022/08/16 10:25:07;;;;;;;6.30;3.17;;;29.80;76.00;;;;;;4066106;29;20565;-66
2022/08/16 10:27:08;;;;;;;2.53;2.28;;;29.80;75.00;;;;;;4066307;29;20042;-66
2022/08/16 10:29:08;;;;;;;3.65;2.75;;;29.90;73.90;;;;;;4067057;29;20464;-68
2022/08/16 10:31:10;;;;;;;3.22;2.67;;;29.90;75.20;;;;;;4062354;29;20495;-68
2022/08/16 10:33:12;;;;;;;6.82;3.22;;;29.90;74.40;;;;;;4061152;29;20032;-67
2022/08/16 10:35:12;;;;;;;;;;;30.00;74.30;;;;;;4061899;29;20432;-68
2022/08/16 10:37:13;;;;;;;4.28;2.65;;;30.00;74.00;;;;;;4061584;29;20006;-67